sensor_id;sensor_type;location;lat;lon;timestamp;P1;durP1;ratioP1;P2;durP2;ratioP2
68025;SDS011;54819;48.030;14.710;2023-04-16T00:01:59;2.00;;;0.90;;
68025;SDS011;54819;48.030;14.710;2023-04-16T00:04:27;2.10;;;1.10;;
68025;SDS011;54819;48.030;14.710;2023-04-16T00:06:53;1.80;;;1.10;;
68025;SDS011;54819;48.030;14.710;2023-04-16T00:09:20;1.80;;;0.90;;
68025;SDS011;54819;48.030;14.710;2023-04-16T00:11:47;2.10;;;1.00;;
68025;SDS011;54819;48.030;14.710;2023-04-16T00:14:13;2.00;;;1.00;;
68025;SDS011;54819;48.030;14.710;2023-04-16T00:16:40;2.60;;;1.20;;
68025;SDS011;54819;48.030;14.710;2023-04-16T00:19:07;2.50;;;1.40;;
68025;SDS011;54819;48.030;14.710;2023-04-16T00:21:34;1.50;;;1.00;;
68025;SDS011;54819;48.030;14.710;2023-04-16T00:24:01;3.70;;;1.20;;
68025;SDS011;54819;48.030;14.710;2023-04-16T00:26:27;1.40;;;0.90;;
68025;SDS011;54819;48.030;14.710;2023-04-16T00:28:54;2.10;;;1.30;;
68025;SDS011;54819;48.030;14.710;2023-04-16T00:31:28;3.30;;;1.40;;
68025;SDS011;54819;48.030;14.710;2023-04-16T00:33:57;1.50;;;0.90;;
68025;SDS011;54819;48.030;14.710;2023-04-16T00:36:25;2.00;;;1.30;;
68025;SDS011;54819;48.030;14.710;2023-04-16T00:38:54;1.80;;;1.00;;
68025;SDS011;54819;48.030;14.710;2023-04-16T00:41:22;3.30;;;1.50;;
68025;SDS011;54819;48.030;14.710;2023-04-16T00:43:49;2.20;;;1.10;;
68025;SDS011;54819;48.030;14.710;2023-04-16T00:46:22;1.90;;;1.20;;
68025;SDS011;54819;48.030;14.710;2023-04-16T00:48:50;2.80;;;1.00;;
68025;SDS011;54819;48.030;14.710;2023-04-16T00:51:19;2.10;;;1.10;;
68025;SDS011;54819;48.030;14.710;2023-04-16T00:53:47;1.90;;;1.10;;
68025;SDS011;54819;48.030;14.710;2023-04-16T00:56:14;2.70;;;1.30;;
68025;SDS011;54819;48.030;14.710;2023-04-16T00:58:43;3.60;;;1.40;;
68025;SDS011;54819;48.030;14.710;2023-04-16T01:01:11;3.60;;;1.30;;
68025;SDS011;54819;48.030;14.710;2023-04-16T01:03:43;3.00;;;1.60;;
68025;SDS011;54819;48.030;14.710;2023-04-16T01:06:12;2.60;;;1.40;;
68025;SDS011;54819;48.030;14.710;2023-04-16T01:08:39;2.40;;;1.30;;
68025;SDS011;54819;48.030;14.710;2023-04-16T01:11:06;2.60;;;1.30;;
68025;SDS011;54819;48.030;14.710;2023-04-16T01:13:34;3.20;;;1.60;;
68025;SDS011;54819;48.030;14.710;2023-04-16T01:16:05;2.40;;;1.50;;
68025;SDS011;54819;48.030;14.710;2023-04-16T01:18:34;2.10;;;1.10;;
68025;SDS011;54819;48.030;14.710;2023-04-16T01:21:02;1.90;;;1.10;;
68025;SDS011;54819;48.030;14.710;2023-04-16T01:23:30;1.90;;;1.00;;
68025;SDS011;54819;48.030;14.710;2023-04-16T01:25:57;2.50;;;1.10;;
68025;SDS011;54819;48.030;14.710;2023-04-16T01:28:23;2.10;;;1.00;;
68025;SDS011;54819;48.030;14.710;2023-04-16T01:30:50;1.80;;;0.90;;
68025;SDS011;54819;48.030;14.710;2023-04-16T01:33:35;2.00;;;1.00;;
68025;SDS011;54819;48.030;14.710;2023-04-16T01:36:02;1.50;;;1.00;;
68025;SDS011;54819;48.030;14.710;2023-04-16T01:38:29;3.40;;;0.90;;
68025;SDS011;54819;48.030;14.710;2023-04-16T01:40:57;2.50;;;1.00;;
68025;SDS011;54819;48.030;14.710;2023-04-16T01:43:24;2.10;;;1.00;;
68025;SDS011;54819;48.030;14.710;2023-04-16T01:46:14;2.20;;;1.10;;
68025;SDS011;54819;48.030;14.710;2023-04-16T01:48:46;2.00;;;1.00;;
68025;SDS011;54819;48.030;14.710;2023-04-16T01:51:13;2.00;;;1.10;;
68025;SDS011;54819;48.030;14.710;2023-04-16T01:53:40;2.40;;;1.20;;
68025;SDS011;54819;48.030;14.710;2023-04-16T01:56:06;2.80;;;1.10;;
68025;SDS011;54819;48.030;14.710;2023-04-16T01:58:34;2.10;;;1.10;;
68025;SDS011;54819;48.030;14.710;2023-04-16T02:01:01;2.60;;;1.20;;
68025;SDS011;54819;48.030;14.710;2023-04-16T02:03:29;2.70;;;1.30;;
68025;SDS011;54819;48.030;14.710;2023-04-16T02:05:57;2.60;;;1.30;;
68025;SDS011;54819;48.030;14.710;2023-04-16T02:08:23;2.20;;;1.20;;
68025;SDS011;54819;48.030;14.710;2023-04-16T02:10:51;2.30;;;1.10;;
68025;SDS011;54819;48.030;14.710;2023-04-16T02:13:17;1.80;;;1.20;;
68025;SDS011;54819;48.030;14.710;2023-04-16T02:15:46;3.10;;;1.50;;
68025;SDS011;54819;48.030;14.710;2023-04-16T02:18:18;4.00;;;1.70;;
68025;SDS011;54819;48.030;14.710;2023-04-16T02:20:46;2.40;;;1.50;;
68025;SDS011;54819;48.030;14.710;2023-04-16T02:23:16;3.00;;;1.60;;
68025;SDS011;54819;48.030;14.710;2023-04-16T02:28:14;2.40;;;1.30;;
68025;SDS011;54819;48.030;14.710;2023-04-16T02:30:43;3.20;;;1.40;;
68025;SDS011;54819;48.030;14.710;2023-04-16T02:35:42;2.30;;;1.40;;
68025;SDS011;54819;48.030;14.710;2023-04-16T02:38:08;3.30;;;1.50;;
68025;SDS011;54819;48.030;14.710;2023-04-16T02:40:35;3.20;;;1.80;;
68025;SDS011;54819;48.030;14.710;2023-04-16T02:43:02;3.80;;;2.10;;
68025;SDS011;54819;48.030;14.710;2023-04-16T02:45:29;4.20;;;2.00;;
68025;SDS011;54819;48.030;14.710;2023-04-16T02:47:57;3.20;;;1.80;;
68025;SDS011;54819;48.030;14.710;2023-04-16T02:50:24;3.00;;;1.90;;
68025;SDS011;54819;48.030;14.710;2023-04-16T02:52:51;3.30;;;1.90;;
68025;SDS011;54819;48.030;14.710;2023-04-16T02:55:17;2.70;;;1.60;;
68025;SDS011;54819;48.030;14.710;2023-04-16T02:57:44;4.10;;;2.20;;
68025;SDS011;54819;48.030;14.710;2023-04-16T03:00:11;4.50;;;2.30;;
68025;SDS011;54819;48.030;14.710;2023-04-16T03:02:38;3.70;;;2.00;;
68025;SDS011;54819;48.030;14.710;2023-04-16T03:05:07;3.80;;;2.00;;
68025;SDS011;54819;48.030;14.710;2023-04-16T03:07:34;3.80;;;2.00;;
68025;SDS011;54819;48.030;14.710;2023-04-16T03:10:01;3.50;;;2.10;;
68025;SDS011;54819;48.030;14.710;2023-04-16T03:12:27;4.40;;;2.10;;
68025;SDS011;54819;48.030;14.710;2023-04-16T03:14:54;4.90;;;2.30;;
68025;SDS011;54819;48.030;14.710;2023-04-16T03:17:21;4.00;;;2.30;;
68025;SDS011;54819;48.030;14.710;2023-04-16T03:19:48;4.10;;;2.10;;
68025;SDS011;54819;48.030;14.710;2023-04-16T03:22:18;3.80;;;2.00;;
68025;SDS011;54819;48.030;14.710;2023-04-16T03:24:45;4.40;;;1.90;;
68025;SDS011;54819;48.030;14.710;2023-04-16T03:27:11;3.70;;;2.00;;
68025;SDS011;54819;48.030;14.710;2023-04-16T03:29:38;4.90;;;2.20;;
68025;SDS011;54819;48.030;14.710;2023-04-16T03:32:05;3.90;;;2.40;;
68025;SDS011;54819;48.030;14.710;2023-04-16T03:34:32;4.30;;;2.40;;
68025;SDS011;54819;48.030;14.710;2023-04-16T03:36:59;4.50;;;2.60;;
68025;SDS011;54819;48.030;14.710;2023-04-16T03:39:26;4.20;;;2.70;;
68025;SDS011;54819;48.030;14.710;2023-04-16T03:41:52;5.70;;;2.80;;
68025;SDS011;54819;48.030;14.710;2023-04-16T03:44:19;4.00;;;2.40;;
68025;SDS011;54819;48.030;14.710;2023-04-16T03:46:46;3.90;;;2.40;;
68025;SDS011;54819;48.030;14.710;2023-04-16T03:49:13;4.30;;;2.80;;
68025;SDS011;54819;48.030;14.710;2023-04-16T03:51:40;4.80;;;3.00;;
68025;SDS011;54819;48.030;14.710;2023-04-16T03:54:06;4.70;;;2.60;;
68025;SDS011;54819;48.030;14.710;2023-04-16T03:56:33;5.60;;;2.80;;
68025;SDS011;54819;48.030;14.710;2023-04-16T03:59:00;7.20;;;3.20;;
68025;SDS011;54819;48.030;14.710;2023-04-16T04:01:27;7.60;;;3.60;;
68025;SDS011;54819;48.030;14.710;2023-04-16T04:03:54;5.60;;;3.10;;
68025;SDS011;54819;48.030;14.710;2023-04-16T04:06:21;5.10;;;3.20;;
68025;SDS011;54819;48.030;14.710;2023-04-16T04:08:47;7.00;;;3.20;;
68025;SDS011;54819;48.030;14.710;2023-04-16T04:11:14;6.60;;;3.70;;
68025;SDS011;54819;48.030;14.710;2023-04-16T04:13:41;6.00;;;2.90;;
68025;SDS011;54819;48.030;14.710;2023-04-16T04:16:08;5.30;;;3.00;;
68025;SDS011;54819;48.030;14.710;2023-04-16T04:18:35;7.40;;;3.50;;
68025;SDS011;54819;48.030;14.710;2023-04-16T04:21:07;5.50;;;3.00;;
68025;SDS011;54819;48.030;14.710;2023-04-16T04:23:35;5.70;;;3.30;;
68025;SDS011;54819;48.030;14.710;2023-04-16T04:26:03;5.30;;;3.10;;
68025;SDS011;54819;48.030;14.710;2023-04-16T04:28:32;5.90;;;3.30;;
68025;SDS011;54819;48.030;14.710;2023-04-16T04:31:00;6.10;;;3.10;;
68025;SDS011;54819;48.030;14.710;2023-04-16T04:33:28;7.80;;;3.50;;
68025;SDS011;54819;48.030;14.710;2023-04-16T04:35:55;5.60;;;3.00;;
68025;SDS011;54819;48.030;14.710;2023-04-16T04:38:22;5.70;;;3.30;;
68025;SDS011;54819;48.030;14.710;2023-04-16T04:40:51;5.70;;;3.30;;
68025;SDS011;54819;48.030;14.710;2023-04-16T04:43:19;5.30;;;3.30;;
68025;SDS011;54819;48.030;14.710;2023-04-16T04:45:46;6.10;;;3.00;;
68025;SDS011;54819;48.030;14.710;2023-04-16T04:48:15;6.00;;;3.50;;
68025;SDS011;54819;48.030;14.710;2023-04-16T04:50:44;6.30;;;3.50;;
68025;SDS011;54819;48.030;14.710;2023-04-16T04:53:12;5.90;;;3.20;;
68025;SDS011;54819;48.030;14.710;2023-04-16T04:58:07;6.30;;;2.90;;
68025;SDS011;54819;48.030;14.710;2023-04-16T05:00:35;6.30;;;3.00;;
68025;SDS011;54819;48.030;14.710;2023-04-16T05:03:04;5.80;;;3.20;;
68025;SDS011;54819;48.030;14.710;2023-04-16T05:05:35;6.40;;;2.90;;
68025;SDS011;54819;48.030;14.710;2023-04-16T05:08:01;5.90;;;2.90;;
68025;SDS011;54819;48.030;14.710;2023-04-16T05:10:28;5.10;;;3.30;;
68025;SDS011;54819;48.030;14.710;2023-04-16T05:12:54;5.50;;;3.10;;
68025;SDS011;54819;48.030;14.710;2023-04-16T05:15:21;6.20;;;3.20;;
68025;SDS011;54819;48.030;14.710;2023-04-16T05:17:48;6.10;;;3.10;;
68025;SDS011;54819;48.030;14.710;2023-04-16T05:20:15;7.50;;;3.40;;
68025;SDS011;54819;48.030;14.710;2023-04-16T05:22:42;4.90;;;2.80;;
68025;SDS011;54819;48.030;14.710;2023-04-16T05:25:08;6.10;;;3.00;;
68025;SDS011;54819;48.030;14.710;2023-04-16T05:27:35;4.50;;;2.60;;
68025;SDS011;54819;48.030;14.710;2023-04-16T05:30:03;4.70;;;2.80;;
68025;SDS011;54819;48.030;14.710;2023-04-16T05:32:30;4.70;;;2.60;;
68025;SDS011;54819;48.030;14.710;2023-04-16T05:34:56;5.50;;;3.30;;
68025;SDS011;54819;48.030;14.710;2023-04-16T05:37:23;8.00;;;3.00;;
68025;SDS011;54819;48.030;14.710;2023-04-16T05:39:50;4.60;;;2.40;;
68025;SDS011;54819;48.030;14.710;2023-04-16T05:42:16;5.80;;;2.90;;
68025;SDS011;54819;48.030;14.710;2023-04-16T05:44:43;5.30;;;2.60;;
68025;SDS011;54819;48.030;14.710;2023-04-16T05:47:10;4.70;;;2.60;;
68025;SDS011;54819;48.030;14.710;2023-04-16T05:49:36;6.60;;;3.00;;
68025;SDS011;54819;48.030;14.710;2023-04-16T05:52:04;4.60;;;2.50;;
68025;SDS011;54819;48.030;14.710;2023-04-16T05:54:30;3.90;;;2.30;;
68025;SDS011;54819;48.030;14.710;2023-04-16T05:56:59;5.30;;;2.50;;
68025;SDS011;54819;48.030;14.710;2023-04-16T05:59:27;4.00;;;2.20;;
68025;SDS011;54819;48.030;14.710;2023-04-16T06:01:54;4.30;;;2.30;;
68025;SDS011;54819;48.030;14.710;2023-04-16T06:04:21;3.50;;;1.90;;
68025;SDS011;54819;48.030;14.710;2023-04-16T06:06:48;4.50;;;2.10;;
68025;SDS011;54819;48.030;14.710;2023-04-16T06:09:14;3.80;;;1.80;;
68025;SDS011;54819;48.030;14.710;2023-04-16T06:11:41;5.30;;;2.40;;
68025;SDS011;54819;48.030;14.710;2023-04-16T06:14:08;4.30;;;2.00;;
68025;SDS011;54819;48.030;14.710;2023-04-16T06:16:35;2.80;;;1.40;;
68025;SDS011;54819;48.030;14.710;2023-04-16T06:19:01;4.20;;;2.30;;
68025;SDS011;54819;48.030;14.710;2023-04-16T06:21:28;3.90;;;1.90;;
68025;SDS011;54819;48.030;14.710;2023-04-16T06:23:55;4.80;;;1.90;;
68025;SDS011;54819;48.030;14.710;2023-04-16T06:26:21;3.10;;;1.50;;
68025;SDS011;54819;48.030;14.710;2023-04-16T06:28:48;3.30;;;1.70;;
68025;SDS011;54819;48.030;14.710;2023-04-16T06:31:15;3.40;;;1.80;;
68025;SDS011;54819;48.030;14.710;2023-04-16T06:33:42;3.50;;;2.10;;
68025;SDS011;54819;48.030;14.710;2023-04-16T06:36:09;5.00;;;1.90;;
68025;SDS011;54819;48.030;14.710;2023-04-16T06:38:37;3.50;;;1.60;;
68025;SDS011;54819;48.030;14.710;2023-04-16T06:41:04;3.60;;;1.70;;
68025;SDS011;54819;48.030;14.710;2023-04-16T06:43:31;3.30;;;1.40;;
68025;SDS011;54819;48.030;14.710;2023-04-16T06:48:26;2.80;;;1.40;;
68025;SDS011;54819;48.030;14.710;2023-04-16T06:50:54;2.00;;;1.10;;
68025;SDS011;54819;48.030;14.710;2023-04-16T06:55:49;2.70;;;1.30;;
68025;SDS011;54819;48.030;14.710;2023-04-16T06:58:15;2.50;;;1.10;;
68025;SDS011;54819;48.030;14.710;2023-04-16T07:00:42;2.30;;;1.00;;
68025;SDS011;54819;48.030;14.710;2023-04-16T07:03:09;2.40;;;1.30;;
68025;SDS011;54819;48.030;14.710;2023-04-16T07:05:36;1.80;;;0.90;;
68025;SDS011;54819;48.030;14.710;2023-04-16T07:08:02;2.10;;;1.00;;
68025;SDS011;54819;48.030;14.710;2023-04-16T07:10:29;1.60;;;0.80;;
68025;SDS011;54819;48.030;14.710;2023-04-16T07:12:56;2.30;;;1.10;;
68025;SDS011;54819;48.030;14.710;2023-04-16T07:15:23;2.40;;;1.10;;
68025;SDS011;54819;48.030;14.710;2023-04-16T07:17:50;2.00;;;1.00;;
68025;SDS011;54819;48.030;14.710;2023-04-16T07:20:16;1.70;;;0.90;;
68025;SDS011;54819;48.030;14.710;2023-04-16T07:22:43;1.90;;;1.20;;
68025;SDS011;54819;48.030;14.710;2023-04-16T07:25:10;2.10;;;1.20;;
68025;SDS011;54819;48.030;14.710;2023-04-16T07:27:36;2.20;;;1.10;;
68025;SDS011;54819;48.030;14.710;2023-04-16T07:30:04;3.00;;;1.20;;
68025;SDS011;54819;48.030;14.710;2023-04-16T07:32:31;1.90;;;1.00;;
68025;SDS011;54819;48.030;14.710;2023-04-16T07:34:58;1.90;;;1.10;;
68025;SDS011;54819;48.030;14.710;2023-04-16T07:37:24;2.30;;;1.10;;
68025;SDS011;54819;48.030;14.710;2023-04-16T07:39:51;2.50;;;1.40;;
68025;SDS011;54819;48.030;14.710;2023-04-16T07:42:18;2.80;;;1.40;;
68025;SDS011;54819;48.030;14.710;2023-04-16T07:44:45;2.10;;;1.20;;
68025;SDS011;54819;48.030;14.710;2023-04-16T07:47:11;2.80;;;1.50;;
68025;SDS011;54819;48.030;14.710;2023-04-16T07:49:38;3.00;;;1.60;;
68025;SDS011;54819;48.030;14.710;2023-04-16T07:52:05;2.80;;;1.50;;
68025;SDS011;54819;48.030;14.710;2023-04-16T07:54:31;2.60;;;1.30;;
68025;SDS011;54819;48.030;14.710;2023-04-16T07:56:58;3.00;;;1.70;;
68025;SDS011;54819;48.030;14.710;2023-04-16T07:59:25;3.40;;;1.80;;
68025;SDS011;54819;48.030;14.710;2023-04-16T08:01:52;3.90;;;1.40;;
68025;SDS011;54819;48.030;14.710;2023-04-16T08:04:20;2.90;;;1.50;;
68025;SDS011;54819;48.030;14.710;2023-04-16T08:06:52;3.10;;;1.70;;
68025;SDS011;54819;48.030;14.710;2023-04-16T08:09:19;3.20;;;1.90;;
68025;SDS011;54819;48.030;14.710;2023-04-16T08:11:48;3.30;;;1.70;;
68025;SDS011;54819;48.030;14.710;2023-04-16T08:14:16;3.60;;;1.90;;
68025;SDS011;54819;48.030;14.710;2023-04-16T08:16:43;3.00;;;1.40;;
68025;SDS011;54819;48.030;14.710;2023-04-16T08:19:09;4.30;;;1.80;;
68025;SDS011;54819;48.030;14.710;2023-04-16T08:21:36;3.80;;;1.70;;
68025;SDS011;54819;48.030;14.710;2023-04-16T08:24:03;3.30;;;1.80;;
68025;SDS011;54819;48.030;14.710;2023-04-16T08:26:30;4.10;;;1.80;;
68025;SDS011;54819;48.030;14.710;2023-04-16T08:28:57;2.60;;;1.50;;
68025;SDS011;54819;48.030;14.710;2023-04-16T08:31:24;3.20;;;1.50;;
68025;SDS011;54819;48.030;14.710;2023-04-16T08:33:51;3.80;;;1.90;;
68025;SDS011;54819;48.030;14.710;2023-04-16T08:36:17;2.80;;;1.70;;
68025;SDS011;54819;48.030;14.710;2023-04-16T08:38:44;2.90;;;1.70;;
68025;SDS011;54819;48.030;14.710;2023-04-16T08:41:12;3.60;;;1.70;;
68025;SDS011;54819;48.030;14.710;2023-04-16T08:43:43;3.00;;;1.50;;
68025;SDS011;54819;48.030;14.710;2023-04-16T08:46:14;3.50;;;1.80;;
68025;SDS011;54819;48.030;14.710;2023-04-16T08:48:46;3.30;;;1.80;;
68025;SDS011;54819;48.030;14.710;2023-04-16T08:51:16;3.40;;;1.50;;
68025;SDS011;54819;48.030;14.710;2023-04-16T08:53:51;3.40;;;1.70;;
68025;SDS011;54819;48.030;14.710;2023-04-16T08:56:20;2.50;;;1.30;;
68025;SDS011;54819;48.030;14.710;2023-04-16T08:58:50;3.50;;;1.40;;
68025;SDS011;54819;48.030;14.710;2023-04-16T09:01:20;3.70;;;1.80;;
68025;SDS011;54819;48.030;14.710;2023-04-16T09:03:47;3.60;;;1.70;;
68025;SDS011;54819;48.030;14.710;2023-04-16T09:06:15;3.30;;;1.90;;
68025;SDS011;54819;48.030;14.710;2023-04-16T09:08:44;3.10;;;1.90;;
68025;SDS011;54819;48.030;14.710;2023-04-16T09:11:16;3.90;;;2.00;;
68025;SDS011;54819;48.030;14.710;2023-04-16T09:13:45;3.60;;;1.90;;
68025;SDS011;54819;48.030;14.710;2023-04-16T09:16:13;4.00;;;2.00;;
68025;SDS011;54819;48.030;14.710;2023-04-16T09:18:40;3.70;;;2.00;;
68025;SDS011;54819;48.030;14.710;2023-04-16T09:21:11;4.60;;;2.10;;
68025;SDS011;54819;48.030;14.710;2023-04-16T09:23:39;3.60;;;1.80;;
68025;SDS011;54819;48.030;14.710;2023-04-16T09:26:06;3.80;;;2.20;;
68025;SDS011;54819;48.030;14.710;2023-04-16T09:28:46;3.50;;;2.10;;
68025;SDS011;54819;48.030;14.710;2023-04-16T09:31:16;3.70;;;2.20;;
68025;SDS011;54819;48.030;14.710;2023-04-16T09:34:07;6.60;;;2.50;;
68025;SDS011;54819;48.030;14.710;2023-04-16T09:36:35;7.10;;;3.20;;
68025;SDS011;54819;48.030;14.710;2023-04-16T09:39:02;8.10;;;2.40;;
68025;SDS011;54819;48.030;14.710;2023-04-16T09:41:31;4.90;;;2.50;;
68025;SDS011;54819;48.030;14.710;2023-04-16T09:44:02;5.20;;;2.50;;
68025;SDS011;54819;48.030;14.710;2023-04-16T09:46:33;5.50;;;2.30;;
68025;SDS011;54819;48.030;14.710;2023-04-16T09:49:14;4.60;;;2.50;;
68025;SDS011;54819;48.030;14.710;2023-04-16T09:51:43;5.40;;;2.80;;
68025;SDS011;54819;48.030;14.710;2023-04-16T09:54:12;4.70;;;2.60;;
68025;SDS011;54819;48.030;14.710;2023-04-16T09:56:41;5.20;;;2.90;;
68025;SDS011;54819;48.030;14.710;2023-04-16T09:59:20;5.30;;;2.90;;
68025;SDS011;54819;48.030;14.710;2023-04-16T10:01:48;4.60;;;2.70;;
68025;SDS011;54819;48.030;14.710;2023-04-16T10:04:16;4.30;;;2.80;;
68025;SDS011;54819;48.030;14.710;2023-04-16T10:06:43;4.60;;;2.80;;
68025;SDS011;54819;48.030;14.710;2023-04-16T10:09:12;4.60;;;2.40;;
68025;SDS011;54819;48.030;14.710;2023-04-16T10:11:39;5.90;;;2.80;;
68025;SDS011;54819;48.030;14.710;2023-04-16T10:14:05;4.60;;;2.70;;
68025;SDS011;54819;48.030;14.710;2023-04-16T10:16:33;5.00;;;3.00;;
68025;SDS011;54819;48.030;14.710;2023-04-16T10:19:01;4.50;;;2.90;;
68025;SDS011;54819;48.030;14.710;2023-04-16T10:21:27;4.90;;;2.80;;
68025;SDS011;54819;48.030;14.710;2023-04-16T10:24:00;5.00;;;2.90;;
68025;SDS011;54819;48.030;14.710;2023-04-16T10:26:29;5.60;;;3.00;;
68025;SDS011;54819;48.030;14.710;2023-04-16T10:28:57;6.00;;;3.00;;
68025;SDS011;54819;48.030;14.710;2023-04-16T10:31:25;5.00;;;3.00;;
68025;SDS011;54819;48.030;14.710;2023-04-16T10:33:53;5.10;;;2.80;;
68025;SDS011;54819;48.030;14.710;2023-04-16T10:36:23;5.10;;;2.90;;
68025;SDS011;54819;48.030;14.710;2023-04-16T10:38:57;4.30;;;2.90;;
68025;SDS011;54819;48.030;14.710;2023-04-16T10:41:25;4.80;;;3.00;;
68025;SDS011;54819;48.030;14.710;2023-04-16T10:44:05;5.60;;;3.00;;
68025;SDS011;54819;48.030;14.710;2023-04-16T10:46:38;5.40;;;2.90;;
68025;SDS011;54819;48.030;14.710;2023-04-16T10:54:29;5.20;;;2.60;;
68025;SDS011;54819;48.030;14.710;2023-04-16T10:57:03;4.50;;;2.60;;
68025;SDS011;54819;48.030;14.710;2023-04-16T10:59:36;4.30;;;2.50;;
68025;SDS011;54819;48.030;14.710;2023-04-16T11:02:10;4.30;;;2.80;;
68025;SDS011;54819;48.030;14.710;2023-04-16T11:04:42;4.70;;;3.00;;
68025;SDS011;54819;48.030;14.710;2023-04-16T11:12:13;6.50;;;3.50;;
68025;SDS011;54819;48.030;14.710;2023-04-16T11:14:43;5.20;;;3.10;;
68025;SDS011;54819;48.030;14.710;2023-04-16T11:17:13;4.30;;;2.60;;
68025;SDS011;54819;48.030;14.710;2023-04-16T11:19:41;4.00;;;2.70;;
68025;SDS011;54819;48.030;14.710;2023-04-16T11:22:12;3.80;;;2.50;;
68025;SDS011;54819;48.030;14.710;2023-04-16T11:24:43;4.80;;;2.50;;
68025;SDS011;54819;48.030;14.710;2023-04-16T11:27:12;4.40;;;2.50;;
68025;SDS011;54819;48.030;14.710;2023-04-16T11:29:40;3.70;;;2.30;;
68025;SDS011;54819;48.030;14.710;2023-04-16T11:32:19;4.20;;;2.40;;
68025;SDS011;54819;48.030;14.710;2023-04-16T11:34:48;4.60;;;2.70;;
68025;SDS011;54819;48.030;14.710;2023-04-16T11:37:14;4.30;;;2.70;;
68025;SDS011;54819;48.030;14.710;2023-04-16T11:39:50;4.20;;;2.60;;
68025;SDS011;54819;48.030;14.710;2023-04-16T11:42:19;4.00;;;2.50;;
68025;SDS011;54819;48.030;14.710;2023-04-16T11:44:55;4.10;;;2.30;;
68025;SDS011;54819;48.030;14.710;2023-04-16T11:47:23;5.10;;;2.60;;
68025;SDS011;54819;48.030;14.710;2023-04-16T11:49:50;5.40;;;3.00;;
68025;SDS011;54819;48.030;14.710;2023-04-16T11:52:31;7.50;;;3.00;;
68025;SDS011;54819;48.030;14.710;2023-04-16T11:54:59;3.70;;;2.40;;
68025;SDS011;54819;48.030;14.710;2023-04-16T11:57:30;3.80;;;2.50;;
68025;SDS011;54819;48.030;14.710;2023-04-16T11:59:58;5.80;;;2.30;;
68025;SDS011;54819;48.030;14.710;2023-04-16T12:05:30;3.80;;;2.20;;
68025;SDS011;54819;48.030;14.710;2023-04-16T12:07:58;4.40;;;2.60;;
68025;SDS011;54819;48.030;14.710;2023-04-16T12:10:32;5.40;;;2.40;;
68025;SDS011;54819;48.030;14.710;2023-04-16T12:13:10;3.80;;;2.30;;
68025;SDS011;54819;48.030;14.710;2023-04-16T12:15:49;4.00;;;2.30;;
68025;SDS011;54819;48.030;14.710;2023-04-16T12:18:19;3.70;;;2.20;;
68025;SDS011;54819;48.030;14.710;2023-04-16T12:20:51;3.70;;;2.10;;
68025;SDS011;54819;48.030;14.710;2023-04-16T12:23:22;3.50;;;2.30;;
68025;SDS011;54819;48.030;14.710;2023-04-16T12:25:56;3.90;;;2.30;;
68025;SDS011;54819;48.030;14.710;2023-04-16T12:28:31;3.20;;;1.90;;
68025;SDS011;54819;48.030;14.710;2023-04-16T12:31:00;3.20;;;1.90;;
68025;SDS011;54819;48.030;14.710;2023-04-16T12:33:28;3.70;;;2.30;;
68025;SDS011;54819;48.030;14.710;2023-04-16T12:35:56;3.10;;;2.00;;
68025;SDS011;54819;48.030;14.710;2023-04-16T12:38:22;4.20;;;2.40;;
68025;SDS011;54819;48.030;14.710;2023-04-16T12:40:51;3.80;;;2.50;;
68025;SDS011;54819;48.030;14.710;2023-04-16T12:43:22;4.20;;;2.40;;
68025;SDS011;54819;48.030;14.710;2023-04-16T12:45:49;3.80;;;2.50;;
68025;SDS011;54819;48.030;14.710;2023-04-16T12:48:16;3.60;;;2.40;;
68025;SDS011;54819;48.030;14.710;2023-04-16T12:50:43;4.10;;;2.60;;
68025;SDS011;54819;48.030;14.710;2023-04-16T12:53:10;3.80;;;2.40;;
68025;SDS011;54819;48.030;14.710;2023-04-16T12:55:37;4.10;;;2.70;;
68025;SDS011;54819;48.030;14.710;2023-04-16T12:58:04;4.30;;;2.80;;
68025;SDS011;54819;48.030;14.710;2023-04-16T13:00:31;3.80;;;2.20;;
68025;SDS011;54819;48.030;14.710;2023-04-16T13:02:58;3.90;;;2.10;;
68025;SDS011;54819;48.030;14.710;2023-04-16T13:05:25;3.70;;;2.20;;
68025;SDS011;54819;48.030;14.710;2023-04-16T13:07:52;3.90;;;2.40;;
68025;SDS011;54819;48.030;14.710;2023-04-16T13:10:20;3.70;;;2.00;;
68025;SDS011;54819;48.030;14.710;2023-04-16T13:12:47;4.20;;;2.10;;
68025;SDS011;54819;48.030;14.710;2023-04-16T13:15:14;6.90;;;3.30;;
68025;SDS011;54819;48.030;14.710;2023-04-16T13:17:41;5.90;;;2.60;;
68025;SDS011;54819;48.030;14.710;2023-04-16T13:20:08;3.70;;;2.30;;
68025;SDS011;54819;48.030;14.710;2023-04-16T13:22:36;3.70;;;2.40;;
68025;SDS011;54819;48.030;14.710;2023-04-16T13:25:03;3.80;;;2.30;;
68025;SDS011;54819;48.030;14.710;2023-04-16T13:27:30;3.80;;;2.10;;
68025;SDS011;54819;48.030;14.710;2023-04-16T13:29:57;3.40;;;2.00;;
68025;SDS011;54819;48.030;14.710;2023-04-16T13:32:24;4.50;;;2.30;;
68025;SDS011;54819;48.030;14.710;2023-04-16T13:34:51;3.40;;;2.20;;
68025;SDS011;54819;48.030;14.710;2023-04-16T13:37:18;5.40;;;2.20;;
68025;SDS011;54819;48.030;14.710;2023-04-16T13:39:44;3.70;;;2.30;;
68025;SDS011;54819;48.030;14.710;2023-04-16T13:42:11;3.70;;;2.00;;
68025;SDS011;54819;48.030;14.710;2023-04-16T13:44:37;3.70;;;2.30;;
68025;SDS011;54819;48.030;14.710;2023-04-16T13:47:04;4.00;;;2.20;;
68025;SDS011;54819;48.030;14.710;2023-04-16T13:49:31;3.90;;;2.30;;
68025;SDS011;54819;48.030;14.710;2023-04-16T13:52:01;4.10;;;2.50;;
68025;SDS011;54819;48.030;14.710;2023-04-16T13:54:28;4.00;;;2.50;;
68025;SDS011;54819;48.030;14.710;2023-04-16T13:56:55;3.90;;;2.70;;
68025;SDS011;54819;48.030;14.710;2023-04-16T13:59:22;5.90;;;2.60;;
68025;SDS011;54819;48.030;14.710;2023-04-16T14:01:48;5.10;;;2.80;;
68025;SDS011;54819;48.030;14.710;2023-04-16T14:04:16;6.00;;;2.80;;
68025;SDS011;54819;48.030;14.710;2023-04-16T14:06:43;5.80;;;2.70;;
68025;SDS011;54819;48.030;14.710;2023-04-16T14:09:10;3.90;;;2.40;;
68025;SDS011;54819;48.030;14.710;2023-04-16T14:11:37;4.60;;;2.90;;
68025;SDS011;54819;48.030;14.710;2023-04-16T14:14:04;4.30;;;2.60;;
68025;SDS011;54819;48.030;14.710;2023-04-16T14:16:31;4.80;;;3.10;;
68025;SDS011;54819;48.030;14.710;2023-04-16T14:18:59;4.90;;;3.40;;
68025;SDS011;54819;48.030;14.710;2023-04-16T14:21:25;4.10;;;2.70;;
68025;SDS011;54819;48.030;14.710;2023-04-16T14:23:52;5.10;;;2.60;;
68025;SDS011;54819;48.030;14.710;2023-04-16T14:26:19;4.90;;;2.70;;
68025;SDS011;54819;48.030;14.710;2023-04-16T14:28:46;4.60;;;2.70;;
68025;SDS011;54819;48.030;14.710;2023-04-16T14:31:13;5.30;;;2.90;;
68025;SDS011;54819;48.030;14.710;2023-04-16T14:33:40;4.20;;;2.80;;
68025;SDS011;54819;48.030;14.710;2023-04-16T14:36:06;4.30;;;2.70;;
68025;SDS011;54819;48.030;14.710;2023-04-16T14:38:33;3.90;;;2.50;;
68025;SDS011;54819;48.030;14.710;2023-04-16T14:41:00;4.20;;;2.80;;
68025;SDS011;54819;48.030;14.710;2023-04-16T14:43:27;3.90;;;2.20;;
68025;SDS011;54819;48.030;14.710;2023-04-16T14:45:53;3.20;;;2.10;;
68025;SDS011;54819;48.030;14.710;2023-04-16T14:48:20;3.40;;;2.20;;
68025;SDS011;54819;48.030;14.710;2023-04-16T14:50:47;3.70;;;2.20;;
68025;SDS011;54819;48.030;14.710;2023-04-16T14:53:14;3.70;;;2.30;;
68025;SDS011;54819;48.030;14.710;2023-04-16T14:55:41;3.40;;;2.20;;
68025;SDS011;54819;48.030;14.710;2023-04-16T14:58:08;3.20;;;2.00;;
68025;SDS011;54819;48.030;14.710;2023-04-16T15:00:36;4.20;;;2.40;;
68025;SDS011;54819;48.030;14.710;2023-04-16T15:03:03;5.10;;;2.50;;
68025;SDS011;54819;48.030;14.710;2023-04-16T15:05:31;3.50;;;2.20;;